Time;durP1;ratioP1;P1;durP2;ratioP2;P2;SDS_P1;SDS_P2;PMS_P1;PMS_P2;Temp;Humidity;BMP_temperature;BMP_pressure;BME280_temperature;BME280_humidity;BME280_pressure;Samples;Min_cycle;Max_cycle;Signal;HPM_P1;HPM_P2
2021/12/25 00:01:14;;;;;;;0.23;0.23;;;7.70;99.90;;;;;;5067303;28;20215;-82
2021/12/25 00:03:39;;;;;;;0.83;0.40;;;7.80;99.90;;;;;;5067123;28;20204;-81
2021/12/25 00:06:05;;;;;;;0.40;0.33;;;7.80;99.90;;;;;;5067581;28;20264;-82
2021/12/25 00:08:32;;;;;;;1.17;1.07;;;7.90;99.90;;;;;;5069185;28;20202;-82
2021/12/25 00:10:59;;;;;;;0.83;0.50;;;7.90;99.90;;;;;;5068360;28;20201;-82
2021/12/25 00:13:25;;;;;;;0.53;0.53;;;7.80;99.90;;;;;;5067942;28;20236;-83
2021/12/25 00:15:51;;;;;;;0.30;0.30;;;7.60;99.90;;;;;;5069590;28;20189;-82
2021/12/25 00:18:18;;;;;;;0.30;0.30;;;7.50;99.90;;;;;;5064286;28;20598;-82
2021/12/25 00:20:44;;;;;;;0.40;0.40;;;7.50;99.90;;;;;;5067840;28;20208;-82
2021/12/25 00:23:10;;;;;;;0.20;0.20;;;7.50;99.90;;;;;;5067341;28;20252;-82
2021/12/25 00:25:41;;;;;;;0.73;0.63;;;7.50;99.90;;;;;;5065510;28;20258;-82
2021/12/25 00:36:19;;;;;;;0.33;0.33;;;7.90;99.90;;;;;;5069487;28;20163;-82
2021/12/25 00:38:46;;;;;;;0.33;0.33;;;7.90;99.90;;;;;;5067053;28;20232;-83
2021/12/25 00:41:14;;;;;;;0.10;0.10;;;7.70;99.90;;;;;;5067080;28;20764;-82
2021/12/25 00:43:41;;;;;;;0.27;0.27;;;7.70;99.90;;;;;;5067545;28;20208;-83
2021/12/25 00:46:06;;;;;;;0.43;0.43;;;7.70;99.90;;;;;;5067846;28;20178;-83
2021/12/25 00:48:32;;;;;;;0.40;0.40;;;7.70;99.90;;;;;;5068440;28;20653;-82
2021/12/25 00:50:58;;;;;;;0.17;0.17;;;7.30;99.90;;;;;;5067099;28;20203;-82
2021/12/25 00:53:24;;;;;;;0.33;0.27;;;7.20;99.90;;;;;;5065013;28;20237;-82
2021/12/25 00:55:49;;;;;;;0.20;0.20;;;7.10;99.90;;;;;;5068636;28;20221;-82
2021/12/25 00:58:15;;;;;;;0.83;0.83;;;7.00;99.90;;;;;;5063305;28;20611;-82
2021/12/25 01:00:41;;;;;;;0.40;0.40;;;7.10;99.90;;;;;;5065592;28;20209;-82
2021/12/25 01:03:07;;;;;;;0.40;0.40;;;7.20;99.90;;;;;;5066834;28;20215;-83
2021/12/25 01:05:33;;;;;;;0.30;0.30;;;7.20;99.90;;;;;;5069801;28;20288;-81
2021/12/25 01:08:00;;;;;;;0.43;0.23;;;7.20;99.90;;;;;;5067587;28;20208;-82
2021/12/25 01:10:25;;;;;;;0.43;0.40;;;7.20;99.90;;;;;;5067418;28;20832;-82
2021/12/25 01:13:06;;;;;;;0.83;0.30;;;7.20;99.90;;;;;;5066012;28;20193;-82
2021/12/25 01:18:40;;;;;;;0.40;0.40;;;7.30;99.90;;;;;;5069012;28;20431;-82
2021/12/25 01:36:46;;;;;;;0.40;0.40;;;7.80;99.90;;;;;;5068011;28;20194;-82
2021/12/25 01:49:38;;;;;;;0.13;0.13;;;7.90;99.90;;;;;;5069009;28;20176;-82
2021/12/25 01:52:04;;;;;;;0.37;0.37;;;7.90;99.90;;;;;;5064914;28;20208;-83
2021/12/25 01:54:31;;;;;;;0.57;0.57;;;7.90;99.90;;;;;;5067091;28;20205;-82
2021/12/25 01:56:56;;;;;;;0.20;0.20;;;7.90;99.90;;;;;;5068165;28;20189;-83
2021/12/25 01:59:22;;;;;;;0.20;0.20;;;8.00;99.90;;;;;;5065928;28;20319;-82
2021/12/25 02:01:48;;;;;;;1.70;0.67;;;8.00;99.90;;;;;;5068427;28;20238;-82
2021/12/25 02:04:14;;;;;;;0.70;0.30;;;8.00;99.90;;;;;;5067462;28;20632;-82
2021/12/25 02:06:40;;;;;;;0.73;0.73;;;8.00;99.90;;;;;;5067815;28;20185;-82
2021/12/25 02:09:06;;;;;;;0.07;0.07;;;8.10;99.90;;;;;;5068421;28;20257;-83
2021/12/25 02:11:32;;;;;;;0.43;0.37;;;8.10;99.90;;;;;;5066986;28;20210;-83
2021/12/25 02:13:58;;;;;;;0.20;0.20;;;7.60;99.90;;;;;;5065279;28;20189;-82
2021/12/25 02:16:36;;;;;;;0.47;0.47;;;7.10;99.90;;;;;;5066732;28;20196;-83
2021/12/25 02:19:05;;;;;;;0.90;0.83;;;6.90;99.90;;;;;;5065564;28;20308;-83
2021/12/25 02:21:40;;;;;;;0.53;0.33;;;6.90;99.90;;;;;;5061550;28;20211;-82
2021/12/25 02:24:09;;;;;;;0.47;0.43;;;6.90;99.90;;;;;;5063642;28;20203;-82
2021/12/25 02:26:37;;;;;;;0.87;0.77;;;6.90;99.90;;;;;;5066512;28;20183;-83
2021/12/25 02:29:03;;;;;;;0.60;0.60;;;6.80;99.90;;;;;;5066946;28;20188;-82
2021/12/25 02:31:29;;;;;;;0.27;0.27;;;7.10;99.90;;;;;;5063071;28;20624;-83
2021/12/25 02:33:55;;;;;;;0.57;0.50;;;7.30;99.90;;;;;;5063904;28;20198;-82
2021/12/25 02:36:20;;;;;;;0.40;0.40;;;7.40;99.90;;;;;;5066505;28;20183;-83
2021/12/25 02:38:48;;;;;;;0.30;0.30;;;7.30;99.90;;;;;;5065862;28;20180;-82
2021/12/25 02:41:14;;;;;;;0.60;0.60;;;7.30;99.90;;;;;;5064352;28;20299;-83
2021/12/25 02:43:43;;;;;;;0.47;0.47;;;7.20;99.90;;;;;;5068003;28;20293;-82
2021/12/25 02:46:09;;;;;;;0.33;0.33;;;7.10;99.90;;;;;;5068769;28;20291;-83
2021/12/25 02:48:40;;;;;;;0.43;0.43;;;7.00;99.90;;;;;;5068054;28;20242;-83
2021/12/25 02:51:07;;;;;;;1.60;0.33;;;6.90;99.90;;;;;;5067352;28;20201;-83
2021/12/25 02:53:33;;;;;;;0.43;0.43;;;7.00;99.90;;;;;;5062776;28;20183;-83
2021/12/25 02:55:59;;;;;;;1.00;0.63;;;6.90;99.90;;;;;;5066141;28;20971;-83
2021/12/25 02:58:25;;;;;;;0.33;0.33;;;7.00;99.90;;;;;;5066138;28;20191;-83
2021/12/25 03:00:56;;;;;;;0.30;0.30;;;7.10;99.90;;;;;;5064637;28;20197;-82
2021/12/25 03:03:21;;;;;;;0.80;0.80;;;7.20;99.90;;;;;;5065277;28;20292;-83
2021/12/25 03:05:48;;;;;;;0.60;0.60;;;7.30;99.90;;;;;;5065421;28;20265;-83
2021/12/25 03:08:15;;;;;;;0.30;0.30;;;7.40;99.90;;;;;;5064316;28;20670;-83
2021/12/25 03:10:41;;;;;;;0.10;0.10;;;7.20;99.90;;;;;;5066231;28;20198;-82
2021/12/25 03:15:45;;;;;;;0.50;0.40;;;7.00;99.90;;;;;;5069398;28;20183;-83
2021/12/25 03:18:12;;;;;;;0.20;0.20;;;7.00;99.90;;;;;;5064299;28;20524;-82
2021/12/25 03:20:40;;;;;;;0.20;0.20;;;7.10;99.90;;;;;;5067008;28;20214;-83
2021/12/25 03:23:06;;;;;;;0.20;0.20;;;7.00;99.90;;;;;;5066995;28;20208;-83
2021/12/25 03:25:32;;;;;;;0.27;0.27;;;7.00;99.90;;;;;;5067266;28;20295;-83
2021/12/25 03:27:58;;;;;;;0.23;0.23;;;7.00;99.90;;;;;;5065820;28;20281;-82
2021/12/25 03:30:24;;;;;;;0.30;0.30;;;6.90;99.90;;;;;;5068243;28;20806;-83
2021/12/25 03:32:50;;;;;;;0.60;0.47;;;7.00;99.90;;;;;;5063482;28;20200;-83
2021/12/25 03:35:16;;;;;;;0.40;0.40;;;7.00;99.90;;;;;;5066534;28;20650;-82
2021/12/25 03:37:41;;;;;;;0.60;0.60;;;6.90;99.90;;;;;;5067533;28;20187;-83
2021/12/25 03:40:08;;;;;;;0.20;0.20;;;6.90;99.90;;;;;;5068466;28;20256;-83
2021/12/25 03:42:33;;;;;;;0.30;0.30;;;7.00;99.90;;;;;;5065266;28;20215;-83
2021/12/25 03:44:59;;;;;;;1.20;0.40;;;7.10;99.90;;;;;;5067928;28;20178;-83
2021/12/25 03:47:33;;;;;;;0.50;0.37;;;7.20;99.90;;;;;;5064986;28;20569;-83
2021/12/25 03:58:10;;;;;;;0.10;0.10;;;7.30;99.90;;;;;;5067353;28;20560;-83
2021/12/25 04:00:36;;;;;;;0.30;0.30;;;7.40;99.90;;;;;;5066963;28;20193;-83
2021/12/25 04:03:07;;;;;;;0.10;0.10;;;7.50;99.90;;;;;;5058995;28;20753;-83
2021/12/25 04:05:35;;;;;;;0.30;0.30;;;7.60;99.90;;;;;;5066023;28;20177;-82
2021/12/25 04:08:09;;;;;;;0.30;0.30;;;7.70;99.90;;;;;;5058109;28;20171;-82
2021/12/25 04:10:38;;;;;;;0.20;0.20;;;7.70;99.90;;;;;;5065668;28;20205;-83
2021/12/25 04:13:07;;;;;;;0.23;0.23;;;7.80;99.90;;;;;;5066269;28;20183;-82
2021/12/25 04:15:34;;;;;;;1.33;0.23;;;7.90;99.90;;;;;;5066604;28;20177;-83
2021/12/25 04:17:59;;;;;;;0.13;0.13;;;7.90;99.90;;;;;;5064942;28;20177;-83
2021/12/25 04:20:26;;;;;;;0.40;0.20;;;7.90;99.90;;;;;;5066878;28;20262;-83
2021/12/25 04:23:03;;;;;;;0.33;0.23;;;8.00;99.90;;;;;;5067793;28;20201;-82
2021/12/25 04:25:32;;;;;;;0.30;0.30;;;8.00;99.90;;;;;;5067370;28;20166;-82
2021/12/25 04:28:09;;;;;;;0.10;0.10;;;8.00;99.90;;;;;;5066645;28;20539;-83
2021/12/25 05:03:22;;;;;;;0.20;0.20;;;7.40;99.90;;;;;;5066582;28;20207;-83
2021/12/25 05:05:48;;;;;;;0.70;0.33;;;7.40;99.90;;;;;;5062423;28;20200;-83
2021/12/25 05:08:14;;;;;;;0.47;0.47;;;7.40;99.90;;;;;;5065637;28;20634;-82
2021/12/25 05:10:40;;;;;;;0.10;0.10;;;7.10;99.90;;;;;;5063330;28;20192;-82
2021/12/25 05:13:05;;;;;;;0.20;0.20;;;6.90;99.90;;;;;;5062337;28;20195;-83
2021/12/25 05:15:31;;;;;;;0.20;0.20;;;6.80;99.90;;;;;;5061250;28;20177;-83
2021/12/25 05:17:56;;;;;;;0.40;0.40;;;6.80;99.90;;;;;;5064787;28;20197;-82
2021/12/25 05:20:23;;;;;;;0.23;0.23;;;6.70;99.90;;;;;;5061117;28;20196;-82
2021/12/25 05:22:49;;;;;;;0.20;0.20;;;6.70;99.90;;;;;;5062427;28;20310;-83
2021/12/25 05:25:15;;;;;;;1.07;0.43;;;6.70;99.90;;;;;;5064987;28;20286;-83
2021/12/25 05:27:41;;;;;;;0.20;0.20;;;6.80;99.90;;;;;;5062738;28;20707;-83
2021/12/25 05:30:07;;;;;;;0.10;0.10;;;6.80;99.90;;;;;;5066144;28;20246;-83
2021/12/25 05:32:33;;;;;;;0.10;0.10;;;6.80;99.90;;;;;;5061746;28;20200;-82
2021/12/25 05:34:58;;;;;;;0.17;0.17;;;6.70;99.90;;;;;;5062526;28;20169;-83
2021/12/25 05:37:24;;;;;;;0.10;0.10;;;6.70;99.90;;;;;;5064714;28;20192;-82
2021/12/25 05:39:51;;;;;;;0.37;0.23;;;6.70;99.90;;;;;;5066067;28;20191;-83
2021/12/25 05:42:22;;;;;;;0.30;0.20;;;6.70;99.90;;;;;;5063921;28;20204;-83
2021/12/25 05:44:49;;;;;;;0.10;0.10;;;6.80;99.90;;;;;;5063819;28;20207;-83
2021/12/25 05:47:14;;;;;;;0.73;0.30;;;6.80;99.90;;;;;;5064232;28;20268;-82
2021/12/25 05:49:40;;;;;;;0.20;0.20;;;6.70;99.90;;;;;;5064830;28;20334;-82
2021/12/25 05:52:06;;;;;;;0.43;0.43;;;6.90;99.90;;;;;;5064507;28;20209;-83
2021/12/25 05:54:31;;;;;;;0.10;0.10;;;6.70;99.90;;;;;;5066031;28;20200;-82
2021/12/25 05:56:57;;;;;;;0.10;0.10;;;6.60;99.90;;;;;;5064330;28;20196;-82
2021/12/25 05:59:23;;;;;;;0.40;0.40;;;6.70;99.90;;;;;;5065407;28;20210;-82
2021/12/25 06:01:48;;;;;;;0.10;0.10;;;6.80;99.90;;;;;;5056960;28;20243;-83
2021/12/25 06:04:14;;;;;;;0.23;0.23;;;6.80;99.90;;;;;;5059859;28;20572;-83
2021/12/25 06:06:39;;;;;;;0.30;0.30;;;7.00;99.90;;;;;;5063393;28;20181;-82
2021/12/25 06:09:09;;;;;;;1.20;0.43;;;7.10;99.90;;;;;;5064489;28;20187;-83
2021/12/25 06:11:38;;;;;;;0.10;0.10;;;7.20;99.90;;;;;;5062071;28;20197;-83
2021/12/25 06:14:18;;;;;;;0.27;0.27;;;7.30;99.90;;;;;;5062768;28;20195;-82
2021/12/25 06:16:44;;;;;;;0.30;0.20;;;7.40;99.90;;;;;;5068241;28;20290;-83
2021/12/25 06:19:09;;;;;;;0.23;0.23;;;7.50;99.90;;;;;;5066760;28;20181;-83
2021/12/25 06:21:36;;;;;;;0.10;0.10;;;7.40;99.90;;;;;;5066330;28;20264;-82
2021/12/25 06:24:02;;;;;;;0.27;0.27;;;7.30;99.90;;;;;;5069324;28;20677;-82
2021/12/25 06:26:29;;;;;;;0.87;0.37;;;7.30;99.90;;;;;;5069351;28;20651;-83
2021/12/25 06:28:55;;;;;;;0.10;0.10;;;7.40;99.90;;;;;;5067088;28;20665;-83
2021/12/25 06:31:22;;;;;;;0.20;0.20;;;7.40;99.90;;;;;;5066120;28;20216;-83
2021/12/25 06:33:48;;;;;;;0.10;0.10;;;7.50;99.90;;;;;;5068653;28;20208;-83
2021/12/25 06:36:13;;;;;;;0.10;0.10;;;7.60;99.90;;;;;;5069612;28;20263;-83
2021/12/25 06:38:41;;;;;;;0.40;0.27;;;7.70;99.90;;;;;;5068239;28;20750;-82
2021/12/25 06:41:07;;;;;;;0.33;0.30;;;7.60;99.90;;;;;;5063280;28;20722;-83
2021/12/25 06:43:33;;;;;;;0.30;0.30;;;7.60;99.90;;;;;;5068356;28;20287;-82
2021/12/25 06:45:59;;;;;;;0.30;0.30;;;7.70;99.90;;;;;;5067935;28;20238;-83
2021/12/25 06:48:25;;;;;;;1.40;0.23;;;7.70;99.90;;;;;;5068626;28;20181;-83
2021/12/25 06:50:51;;;;;;;0.67;0.50;;;7.80;99.90;;;;;;5066730;28;21163;-82
2021/12/25 06:53:17;;;;;;;0.10;0.10;;;7.80;99.90;;;;;;5069145;28;20190;-83
2021/12/25 06:55:42;;;;;;;0.17;0.17;;;7.80;99.90;;;;;;5067504;28;20193;-81
2021/12/25 06:58:08;;;;;;;0.20;0.20;;;7.90;99.90;;;;;;5067156;28;20200;-82
2021/12/25 07:00:33;;;;;;;1.03;0.90;;;7.90;99.90;;;;;;5069058;28;20301;-82
2021/12/25 07:02:59;;;;;;;0.20;0.20;;;7.90;99.90;;;;;;5063697;28;20212;-82
2021/12/25 07:05:25;;;;;;;0.20;0.20;;;7.90;99.90;;;;;;5067979;28;20182;-83
2021/12/25 07:07:51;;;;;;;1.30;0.70;;;7.90;99.90;;;;;;5061590;28;20188;-82
2021/12/25 07:10:17;;;;;;;0.83;0.40;;;7.90;99.90;;;;;;5066173;28;20184;-83
2021/12/25 07:12:46;;;;;;;0.37;0.37;;;7.90;99.90;;;;;;5068899;28;20639;-83
2021/12/25 07:15:12;;;;;;;0.50;0.50;;;8.00;99.90;;;;;;5065599;28;20190;-83
2021/12/25 07:17:39;;;;;;;0.50;0.50;;;7.90;99.90;;;;;;5065942;28;20180;-82
2021/12/25 07:20:05;;;;;;;0.80;0.80;;;7.90;99.90;;;;;;5063131;28;20181;-82
2021/12/25 07:22:30;;;;;;;0.20;0.20;;;7.90;99.90;;;;;;5068321;28;20219;-83
2021/12/25 07:24:56;;;;;;;0.40;0.40;;;7.90;99.90;;;;;;5067374;28;20680;-82
2021/12/25 07:27:22;;;;;;;0.40;0.40;;;7.90;99.90;;;;;;5067927;28;20190;-82
2021/12/25 07:29:48;;;;;;;0.30;0.30;;;7.80;99.90;;;;;;5066416;28;20703;-82
2021/12/25 07:32:13;;;;;;;0.33;0.33;;;7.80;99.90;;;;;;5064101;28;20223;-82
2021/12/25 07:34:40;;;;;;;0.20;0.20;;;7.70;99.90;;;;;;5068184;28;20192;-83
2021/12/25 07:37:06;;;;;;;0.10;0.10;;;7.70;99.90;;;;;;5068848;28;20177;-83
2021/12/25 07:39:32;;;;;;;0.20;0.20;;;7.60;99.90;;;;;;5068033;28;20192;-82
2021/12/25 07:41:58;;;;;;;0.20;0.20;;;7.60;99.90;;;;;;5067228;28;20537;-82
2021/12/25 07:44:24;;;;;;;0.20;0.20;;;7.60;99.90;;;;;;5067824;28;20229;-83
2021/12/25 07:46:49;;;;;;;0.10;0.10;;;7.50;99.90;;;;;;5067396;28;20203;-82
2021/12/25 07:49:19;;;;;;;0.50;0.50;;;7.50;99.90;;;;;;5064095;28;20180;-82
2021/12/25 07:51:45;;;;;;;1.90;0.30;;;7.60;99.90;;;;;;5068228;28;20190;-82
2021/12/25 07:54:11;;;;;;;0.30;0.30;;;7.60;99.90;;;;;;5067617;28;20550;-83
2021/12/25 07:56:37;;;;;;;0.10;0.10;;;7.60;99.90;;;;;;5070401;28;20201;-83
2021/12/25 07:59:03;;;;;;;0.10;0.10;;;7.60;99.90;;;;;;5067573;28;20202;-82
2021/12/25 08:01:31;;;;;;;0.30;0.27;;;7.60;99.90;;;;;;5065633;28;20209;-83
2021/12/25 08:03:56;;;;;;;0.30;0.30;;;7.60;99.90;;;;;;5066851;28;20201;-82
2021/12/25 08:06:22;;;;;;;0.10;0.10;;;7.60;99.90;;;;;;5067868;28;20241;-82
2021/12/25 08:08:49;;;;;;;0.20;0.17;;;7.50;99.90;;;;;;5063170;28;20267;-83
2021/12/25 08:11:15;;;;;;;0.10;0.10;;;7.40;99.90;;;;;;5064235;28;20197;-82
2021/12/25 08:13:40;;;;;;;0.23;0.23;;;7.30;99.90;;;;;;5064856;28;20196;-83
2021/12/25 08:16:06;;;;;;;0.10;0.10;;;7.20;99.90;;;;;;5067455;28;20656;-82
2021/12/25 08:18:31;;;;;;;0.23;0.23;;;6.70;99.90;;;;;;5068659;28;20300;-83
2021/12/25 08:20:59;;;;;;;0.20;0.20;;;6.60;99.90;;;;;;5063870;28;20314;-82
2021/12/25 08:23:25;;;;;;;0.20;0.20;;;6.70;99.90;;;;;;5064785;28;20753;-83
2021/12/25 08:25:50;;;;;;;0.10;0.10;;;6.70;99.90;;;;;;5062756;28;20280;-83
2021/12/25 08:28:16;;;;;;;0.10;0.10;;;6.90;99.90;;;;;;5062443;28;20269;-83
2021/12/25 08:30:41;;;;;;;0.20;0.10;;;6.90;99.90;;;;;;5078516;28;20235;-82
2021/12/25 08:33:07;;;;;;;0.10;0.10;;;7.00;99.90;;;;;;5068533;28;20192;-82
2021/12/25 08:35:33;;;;;;;0.00;0.00;;;7.00;99.90;;;;;;5069818;28;20181;-82
2021/12/25 08:37:58;;;;;;;0.13;0.13;;;7.10;99.90;;;;;;5069552;28;20183;-82
2021/12/25 08:40:25;;;;;;;0.10;0.10;;;7.20;99.90;;;;;;5068419;28;20185;-82
2021/12/25 08:42:57;;;;;;;0.20;0.20;;;7.10;99.90;;;;;;5073157;28;20189;-82
2021/12/25 08:48:33;;;;;;;0.30;0.30;;;7.10;99.90;;;;;;5079508;28;20206;-82
2021/12/25 08:50:59;;;;;;;0.13;0.13;;;7.20;99.90;;;;;;5069651;28;20581;-82
2021/12/25 08:53:28;;;;;;;0.20;0.20;;;7.20;99.90;;;;;;5066235;28;20193;-82
2021/12/25 08:55:55;;;;;;;0.23;0.23;;;7.20;99.90;;;;;;5077015;28;20247;-82
2021/12/25 08:58:22;;;;;;;0.13;0.13;;;7.30;99.90;;;;;;5071990;28;20202;-82
2021/12/25 09:00:50;;;;;;;0.10;0.10;;;7.20;99.90;;;;;;5071116;28;20495;-82
2021/12/25 09:03:16;;;;;;;0.30;0.30;;;7.30;99.90;;;;;;5071357;28;20210;-82
2021/12/25 09:05:42;;;;;;;0.50;0.50;;;7.20;99.90;;;;;;5070548;28;20184;-82
2021/12/25 09:08:07;;;;;;;4.83;1.47;;;7.20;99.90;;;;;;5069902;28;20258;-82
2021/12/25 09:10:35;;;;;;;3.80;1.23;;;6.70;99.90;;;;;;5071548;28;20186;-82
2021/12/25 09:13:00;;;;;;;3.50;1.50;;;6.60;99.90;;;;;;5070633;28;20177;-82
2021/12/25 09:15:26;;;;;;;1.50;1.23;;;6.30;99.90;;;;;;5071713;28;20246;-82
2021/12/25 09:17:52;;;;;;;0.67;0.67;;;6.00;99.90;;;;;;5069441;28;20190;-82
2021/12/25 09:20:20;;;;;;;0.10;0.10;;;6.00;99.90;;;;;;5070501;28;20201;-82
2021/12/25 09:22:46;;;;;;;0.27;0.27;;;6.10;99.90;;;;;;5072003;28;20192;-82
2021/12/25 09:25:12;;;;;;;0.20;0.20;;;6.20;99.90;;;;;;5069316;28;20177;-82
2021/12/25 09:27:38;;;;;;;0.27;0.27;;;6.10;99.90;;;;;;5070947;28;20177;-82
2021/12/25 09:30:05;;;;;;;0.00;0.00;;;6.00;99.90;;;;;;5068097;28;20190;-82
2021/12/25 09:32:30;;;;;;;0.17;0.10;;;5.80;99.90;;;;;;5067674;28;20272;-82
2021/12/25 09:35:00;;;;;;;0.00;0.00;;;5.70;99.90;;;;;;5066056;28;20208;-82
2021/12/25 09:37:28;;;;;;;0.40;0.40;;;5.60;99.90;;;;;;5069762;28;20182;-81
2021/12/25 09:39:54;;;;;;;0.00;0.00;;;5.60;99.90;;;;;;5068842;28;21538;-81
2021/12/25 09:42:23;;;;;;;0.20;0.20;;;5.70;99.90;;;;;;5069663;28;20275;-82
2021/12/25 09:44:49;;;;;;;0.00;0.00;;;5.80;99.90;;;;;;5065343;28;20258;-82
2021/12/25 09:47:14;;;;;;;0.10;0.10;;;5.70;99.90;;;;;;5071442;28;20180;-81
2021/12/25 09:49:40;;;;;;;0.40;0.40;;;5.70;99.90;;;;;;5065946;28;20184;-82
2021/12/25 09:52:06;;;;;;;0.10;0.10;;;5.70;99.90;;;;;;5070261;28;20230;-81
2021/12/25 09:54:31;;;;;;;0.00;0.00;;;5.60;99.90;;;;;;5070212;28;20412;-82
2021/12/25 09:56:58;;;;;;;0.00;0.00;;;5.40;99.90;;;;;;5070212;28;20185;-82
2021/12/25 09:59:25;;;;;;;0.00;0.00;;;5.20;99.90;;;;;;5068665;28;20720;-81
2021/12/25 10:01:53;;;;;;;0.10;0.10;;;5.20;99.90;;;;;;5069044;28;20208;-81
2021/12/25 10:04:38;;;;;;;0.10;0.10;;;5.30;99.90;;;;;;5069190;28;20241;-82
2021/12/25 10:07:27;;;;;;;0.00;0.00;;;5.30;99.90;;;;;;5069398;28;20188;-81
2021/12/25 10:09:56;;;;;;;0.10;0.10;;;5.20;99.90;;;;;;5067316;28;20382;-82
2021/12/25 10:12:27;;;;;;;0.10;0.10;;;5.10;99.90;;;;;;5067694;28;20299;-81
2021/12/25 10:14:54;;;;;;;0.10;0.10;;;5.10;99.90;;;;;;5068561;28;20548;-81
2021/12/25 10:17:23;;;;;;;0.10;0.10;;;5.10;99.90;;;;;;5067751;28;20216;-82
2021/12/25 10:20:11;;;;;;;0.00;0.00;;;5.10;99.90;;;;;;5067812;28;20191;-81
2021/12/25 10:22:55;;;;;;;0.10;0.10;;;5.10;99.90;;;;;;5068957;28;20189;-81
2021/12/25 10:25:21;;;;;;;0.10;0.10;;;5.10;99.90;;;;;;5068898;28;20211;-81
2021/12/25 10:27:53;;;;;;;0.00;0.00;;;5.20;99.90;;;;;;5065673;28;20169;-82
2021/12/25 10:30:19;;;;;;;0.40;0.40;;;5.20;99.90;;;;;;5068203;28;20179;-82
2021/12/25 10:32:45;;;;;;;0.07;0.07;;;5.30;99.90;;;;;;5069495;28;20173;-81
2021/12/25 10:35:25;;;;;;;0.10;0.10;;;5.20;99.90;;;;;;5068699;28;20183;-81
2021/12/25 10:37:52;;;;;;;0.10;0.10;;;5.20;99.90;;;;;;5067727;28;20668;-83
2021/12/25 10:40:23;;;;;;;0.20;0.20;;;5.20;99.90;;;;;;5066389;28;20267;-81
2021/12/25 10:42:49;;;;;;;0.10;0.10;;;5.10;99.90;;;;;;5069248;28;20205;-81
2021/12/25 10:45:14;;;;;;;0.10;0.10;;;5.10;99.90;;;;;;5068740;28;20244;-82
2021/12/25 10:47:40;;;;;;;0.00;0.00;;;5.20;99.90;;;;;;5068246;28;20569;-81
2021/12/25 10:50:14;;;;;;;0.20;0.20;;;5.10;99.90;;;;;;5066570;28;20181;-82
2021/12/25 10:52:46;;;;;;;0.00;0.00;;;5.00;99.90;;;;;;5068094;28;20192;-82
2021/12/25 10:55:23;;;;;;;0.10;0.10;;;4.90;99.90;;;;;;5069731;28;20165;-81
2021/12/25 10:57:52;;;;;;;0.10;0.10;;;4.80;99.90;;;;;;5067870;28;20180;-82
2021/12/25 11:00:21;;;;;;;0.10;0.10;;;5.00;99.90;;;;;;5067238;28;20552;-81
2021/12/25 11:02:50;;;;;;;0.10;0.10;;;4.90;99.90;;;;;;5071673;28;20235;-80
2021/12/25 11:05:18;;;;;;;0.10;0.10;;;5.00;99.90;;;;;;5069952;28;20186;-81
2021/12/25 11:07:45;;;;;;;0.10;0.10;;;5.10;99.90;;;;;;5072390;28;20195;-81
2021/12/25 11:10:17;;;;;;;0.10;0.10;;;4.90;99.90;;;;;;5071029;28;20318;-82
2021/12/25 11:12:43;;;;;;;0.10;0.10;;;4.90;99.90;;;;;;5070620;28;20199;-82
2021/12/25 11:15:12;;;;;;;0.10;0.10;;;5.00;99.90;;;;;;5072207;28;20195;-82
2021/12/25 11:17:40;;;;;;;0.10;0.10;;;4.90;99.90;;;;;;5072994;28;20296;-81
2021/12/25 11:20:08;;;;;;;0.10;0.10;;;4.80;99.90;;;;;;5071636;28;20298;-82
2021/12/25 11:22:45;;;;;;;0.10;0.10;;;4.60;99.90;;;;;;5070157;28;20300;-81
2021/12/25 11:25:11;;;;;;;0.20;0.20;;;4.60;99.90;;;;;;5070059;28;20199;-81
2021/12/25 11:27:37;;;;;;;0.10;0.10;;;4.50;99.90;;;;;;5071456;28;20180;-82
2021/12/25 11:30:04;;;;;;;0.10;0.10;;;4.50;99.90;;;;;;5071077;28;20211;-82
2021/12/25 11:32:30;;;;;;;0.00;0.00;;;4.50;99.90;;;;;;5071002;28;20197;-82
2021/12/25 11:34:58;;;;;;;0.10;0.10;;;4.40;99.90;;;;;;5070741;28;20732;-81
2021/12/25 11:37:25;;;;;;;0.00;0.00;;;4.30;99.90;;;;;;5072037;28;20194;-82
2021/12/25 11:39:53;;;;;;;0.00;0.00;;;4.40;99.90;;;;;;5070013;28;20180;-82
2021/12/25 11:42:21;;;;;;;0.10;0.10;;;4.30;99.90;;;;;;5069422;28;20207;-82
2021/12/25 11:44:52;;;;;;;0.10;0.10;;;4.20;99.90;;;;;;5071755;28;20549;-82
2021/12/25 11:47:41;;;;;;;0.00;0.00;;;4.30;99.90;;;;;;5068191;28;20184;-83
2021/12/25 11:50:17;;;;;;;0.10;0.10;;;4.30;99.90;;;;;;5070158;28;20282;-83
2021/12/25 11:53:00;;;;;;;0.10;0.10;;;4.20;99.90;;;;;;5071594;28;20181;-82
2021/12/25 11:58:25;;;;;;;0.10;0.10;;;4.00;99.90;;;;;;5071248;28;20185;-82
2021/12/25 12:00:51;;;;;;;0.00;0.00;;;3.90;99.90;;;;;;5068329;28;20221;-81
2021/12/25 12:03:38;;;;;;;0.07;0.07;;;3.90;99.90;;;;;;5070397;28;20281;-82
2021/12/25 12:06:05;;;;;;;0.10;0.10;;;4.00;99.90;;;;;;5069647;28;20203;-82
2021/12/25 12:08:54;;;;;;;0.10;0.10;;;3.90;99.90;;;;;;5071508;28;20210;-82
2021/12/25 12:11:22;;;;;;;0.00;0.00;;;4.00;99.90;;;;;;5071216;28;20242;-83
2021/12/25 12:14:08;;;;;;;0.43;0.43;;;4.00;99.90;;;;;;5068986;28;20183;-83
2021/12/25 12:16:46;;;;;;;0.53;0.53;;;4.10;99.90;;;;;;5067820;28;20268;-81
2021/12/25 12:19:31;;;;;;;0.47;0.47;;;4.00;99.90;;;;;;5069772;28;20188;-82
2021/12/25 12:22:51;;;;;;;0.00;0.00;;;3.80;99.90;;;;;;5070788;28;20228;-82
2021/12/25 12:27:43;;;;;;;0.10;0.10;;;3.70;99.90;;;;;;5070983;28;20191;-82
2021/12/25 12:30:34;;;;;;;0.10;0.10;;;3.60;99.90;;;;;;5070207;28;20218;-82
2021/12/25 12:33:11;;;;;;;0.00;0.00;;;3.60;99.90;;;;;;5071490;28;20191;-82
2021/12/25 12:35:42;;;;;;;0.10;0.10;;;3.60;99.90;;;;;;5066633;28;20193;-82
2021/12/25 12:38:43;;;;;;;0.10;0.10;;;3.60;99.90;;;;;;5068523;28;20183;-82
2021/12/25 12:41:32;;;;;;;0.00;0.00;;;3.50;99.90;;;;;;5068433;28;20207;-82
2021/12/25 12:44:06;;;;;;;0.00;0.00;;;3.50;99.90;;;;;;5069376;28;20207;-82
2021/12/25 12:46:50;;;;;;;0.43;0.20;;;3.40;99.90;;;;;;5068652;28;20201;-83
2021/12/25 12:49:23;;;;;;;0.00;0.00;;;3.40;99.90;;;;;;5068478;28;20178;-82
2021/12/25 12:52:14;;;;;;;0.10;0.10;;;3.30;99.90;;;;;;5067374;28;20203;-82
2021/12/25 12:54:53;;;;;;;0.10;0.10;;;3.30;99.90;;;;;;5045977;28;20264;-82
2021/12/25 12:57:39;;;;;;;0.07;0.07;;;3.40;99.90;;;;;;5068380;28;20226;-82
2021/12/25 13:00:20;;;;;;;0.00;0.00;;;3.30;99.90;;;;;;5068083;28;20658;-82
2021/12/25 13:02:49;;;;;;;0.10;0.10;;;3.30;99.90;;;;;;5070519;28;20945;-82
2021/12/25 13:05:18;;;;;;;0.20;0.20;;;3.40;99.90;;;;;;5068361;28;20693;-82
2021/12/25 13:07:46;;;;;;;0.10;0.10;;;3.40;99.90;;;;;;5068855;28;20556;-82
2021/12/25 13:10:35;;;;;;;0.13;0.13;;;3.20;99.90;;;;;;5069519;28;20189;-82
2021/12/25 13:13:09;;;;;;;0.10;0.10;;;3.20;99.90;;;;;;5062051;28;20203;-83
2021/12/25 13:15:35;;;;;;;0.10;0.10;;;3.10;99.90;;;;;;5070278;28;20174;-82
2021/12/25 13:18:05;;;;;;;0.17;0.17;;;3.00;99.90;;;;;;5069483;28;20225;-82
2021/12/25 13:20:52;;;;;;;0.10;0.10;;;3.00;99.90;;;;;;5069117;28;20180;-82
2021/12/25 13:23:26;;;;;;;0.10;0.10;;;3.00;99.90;;;;;;5069944;28;20207;-82
2021/12/25 13:25:58;;;;;;;0.10;0.10;;;3.00;99.90;;;;;;5069536;28;20200;-82
2021/12/25 13:28:27;;;;;;;0.00;0.00;;;3.00;99.90;;;;;;5066985;28;20537;-81
2021/12/25 13:31:00;;;;;;;0.30;0.30;;;3.10;99.90;;;;;;5068218;28;20340;-82
2021/12/25 13:33:28;;;;;;;0.10;0.10;;;3.00;99.90;;;;;;5066543;28;20679;-84
2021/12/25 13:36:13;;;;;;;1.40;1.30;;;3.00;99.90;;;;;;5064973;28;20986;-81
2021/12/25 13:38:49;;;;;;;1.30;0.27;;;2.90;99.90;;;;;;5067810;28;20679;-81
2021/12/25 13:41:30;;;;;;;0.10;0.10;;;2.80;99.90;;;;;;5067901;28;20265;-81
2021/12/25 13:44:13;;;;;;;0.10;0.10;;;2.80;99.90;;;;;;5068235;28;20205;-82
2021/12/25 13:46:44;;;;;;;0.10;0.10;;;2.90;99.90;;;;;;5067551;28;20206;-81
2021/12/25 13:49:30;;;;;;;0.40;0.30;;;2.90;99.90;;;;;;5062761;28;20271;-81
2021/12/25 13:51:58;;;;;;;0.20;0.20;;;2.70;99.90;;;;;;5067295;28;20248;-81
2021/12/25 13:54:24;;;;;;;0.00;0.00;;;2.70;99.90;;;;;;5066491;28;20236;-81
2021/12/25 13:56:52;;;;;;;0.30;0.30;;;2.70;99.90;;;;;;5068949;28;20181;-81
2021/12/25 13:59:20;;;;;;;0.10;0.10;;;2.60;99.90;;;;;;5070690;28;20243;-81
2021/12/25 14:02:02;;;;;;;0.03;0.03;;;2.60;99.90;;;;;;5065716;28;20199;-81
2021/12/25 14:04:28;;;;;;;0.10;0.10;;;2.70;99.90;;;;;;5070636;28;20196;-81
2021/12/25 14:06:54;;;;;;;0.10;0.10;;;2.80;99.90;;;;;;5069182;28;20212;-81
2021/12/25 14:09:20;;;;;;;0.10;0.10;;;2.80;99.90;;;;;;5066239;28;20182;-81
2021/12/25 14:11:54;;;;;;;0.20;0.20;;;2.70;99.90;;;;;;5067938;28;20294;-81
2021/12/25 14:14:22;;;;;;;0.50;0.30;;;2.60;99.90;;;;;;5067408;28;20189;-81
2021/12/25 14:16:49;;;;;;;2.03;1.90;;;2.60;99.90;;;;;;5067347;28;20182;-82
2021/12/25 14:19:15;;;;;;;0.10;0.10;;;2.60;99.90;;;;;;5068882;28;20192;-82
2021/12/25 14:22:04;;;;;;;0.10;0.10;;;2.60;99.90;;;;;;5067662;28;20218;-81
2021/12/25 14:24:45;;;;;;;0.10;0.10;;;2.70;99.90;;;;;;5067751;28;20222;-82
2021/12/25 14:27:16;;;;;;;0.30;0.30;;;2.80;99.90;;;;;;5070930;28;20186;-80
2021/12/25 14:29:43;;;;;;;0.10;0.10;;;2.90;99.90;;;;;;5068909;28;20194;-82
2021/12/25 14:32:27;;;;;;;0.13;0.13;;;2.80;99.90;;;;;;5068497;28;20234;-81
2021/12/25 14:34:55;;;;;;;2.23;0.50;;;2.80;99.90;;;;;;5068683;28;20249;-81
2021/12/25 14:37:33;;;;;;;0.00;0.00;;;2.70;99.90;;;;;;5071294;28;20219;-82